sensor_id;sensor_type;location;lat;lon;timestamp;pressure;altitude;pressure_sealevel;temperature;humidity
9523;BME280;63165;43.016;25.784;2023-03-25T00:00:03;99616.72;;;9.90;70.96
9523;BME280;63165;43.016;25.784;2023-03-25T00:02:39;99606.53;;;9.78;71.14
9523;BME280;63165;43.016;25.784;2023-03-25T00:05:07;99616.06;;;9.81;71.08
9523;BME280;63165;43.016;25.784;2023-03-25T00:07:35;99635.19;;;9.81;71.52
9523;BME280;63165;43.016;25.784;2023-03-25T00:10:03;99617.09;;;9.72;71.37
9523;BME280;63165;43.016;25.784;2023-03-25T00:12:30;99620.59;;;9.73;71.72
9523;BME280;63165;43.016;25.784;2023-03-25T00:14:57;99586.88;;;9.60;71.41
9523;BME280;63165;43.016;25.784;2023-03-25T00:17:25;99615.50;;;9.65;71.87
9523;BME280;63165;43.016;25.784;2023-03-25T00:19:59;99613.00;;;9.59;71.70
9523;BME280;63165;43.016;25.784;2023-03-25T00:22:29;99601.91;;;9.49;72.21
9523;BME280;63165;43.016;25.784;2023-03-25T00:24:57;99614.13;;;9.47;72.39
9523;BME280;63165;43.016;25.784;2023-03-25T00:27:24;99595.25;;;9.32;72.47
9523;BME280;63165;43.016;25.784;2023-03-25T00:29:51;99611.69;;;9.38;72.62
9523;BME280;63165;43.016;25.784;2023-03-25T00:32:19;99581.56;;;9.18;73.15
9523;BME280;63165;43.016;25.784;2023-03-25T00:34:46;99598.03;;;9.22;73.28
9523;BME280;63165;43.016;25.784;2023-03-25T00:37:15;99598.94;;;9.22;73.18
9523;BME280;63165;43.016;25.784;2023-03-25T00:39:46;99585.09;;;9.17;73.26
9523;BME280;63165;43.016;25.784;2023-03-25T00:42:15;99593.75;;;9.19;73.21
9523;BME280;63165;43.016;25.784;2023-03-25T00:44:43;99593.03;;;9.11;73.40
9523;BME280;63165;43.016;25.784;2023-03-25T00:47:10;99581.97;;;8.97;73.09
9523;BME280;63165;43.016;25.784;2023-03-25T00:49:43;99555.44;;;8.71;73.38
9523;BME280;63165;43.016;25.784;2023-03-25T00:52:11;99596.69;;;9.01;73.16
9523;BME280;63165;43.016;25.784;2023-03-25T00:54:42;99588.13;;;8.94;73.76
9523;BME280;63165;43.016;25.784;2023-03-25T00:57:10;99592.47;;;8.92;73.89
9523;BME280;63165;43.016;25.784;2023-03-25T00:59:37;99558.03;;;8.73;73.89
9523;BME280;63165;43.016;25.784;2023-03-25T01:02:05;99598.72;;;8.83;74.11
9523;BME280;63165;43.016;25.784;2023-03-25T01:04:34;99562.66;;;8.57;74.15
9523;BME280;63165;43.016;25.784;2023-03-25T01:07:02;99582.47;;;8.67;74.30
9523;BME280;63165;43.016;25.784;2023-03-25T01:09:30;99487.75;;;8.11;74.36
9523;BME280;63165;43.016;25.784;2023-03-25T01:11:58;99570.41;;;8.60;74.38
9523;BME280;63165;43.016;25.784;2023-03-25T01:14:26;99565.34;;;8.51;74.76
9523;BME280;63165;43.016;25.784;2023-03-25T01:16:54;99565.44;;;8.46;75.30
9523;BME280;63165;43.016;25.784;2023-03-25T01:19:22;99562.94;;;8.37;75.49
9523;BME280;63165;43.016;25.784;2023-03-25T01:21:49;99547.44;;;8.28;75.63
9523;BME280;63165;43.016;25.784;2023-03-25T01:24:17;99527.56;;;8.19;76.03
9523;BME280;63165;43.016;25.784;2023-03-25T01:26:45;99550.13;;;8.22;75.95
9523;BME280;63165;43.016;25.784;2023-03-25T01:29:15;99550.06;;;8.26;76.15
9523;BME280;63165;43.016;25.784;2023-03-25T01:31:45;99563.03;;;8.31;75.99
9523;BME280;63165;43.016;25.784;2023-03-25T01:34:14;99552.59;;;8.31;75.85
9523;BME280;63165;43.016;25.784;2023-03-25T01:36:41;99525.13;;;8.10;75.82
9523;BME280;63165;43.016;25.784;2023-03-25T01:39:12;99542.31;;;8.23;76.12
9523;BME280;63165;43.016;25.784;2023-03-25T01:41:41;99549.22;;;8.23;76.22
9523;BME280;63165;43.016;25.784;2023-03-25T01:47:16;99524.38;;;8.02;75.88
9523;BME280;63165;43.016;25.784;2023-03-25T01:49:45;99544.34;;;8.03;75.92
9523;BME280;63165;43.016;25.784;2023-03-25T01:52:17;99545.25;;;7.98;76.51
9523;BME280;63165;43.016;25.784;2023-03-25T01:54:57;99535.75;;;7.94;76.21
9523;BME280;63165;43.016;25.784;2023-03-25T01:57:25;99542.72;;;7.92;76.29
9523;BME280;63165;43.016;25.784;2023-03-25T02:00:02;99527.94;;;7.94;76.20
9523;BME280;63165;43.016;25.784;2023-03-25T02:02:36;99532.44;;;7.83;76.41
9523;BME280;63165;43.016;25.784;2023-03-25T02:05:14;99533.38;;;7.79;76.92
9523;BME280;63165;43.016;25.784;2023-03-25T02:07:47;99525.78;;;7.64;76.69
9523;BME280;63165;43.016;25.784;2023-03-25T02:10:16;99518.78;;;7.67;76.96
9523;BME280;63165;43.016;25.784;2023-03-25T02:12:43;99522.25;;;7.68;77.01
9523;BME280;63165;43.016;25.784;2023-03-25T02:15:14;99533.53;;;7.67;77.08
9523;BME280;63165;43.016;25.784;2023-03-25T02:17:53;99498.41;;;7.32;77.71
9523;BME280;63165;43.016;25.784;2023-03-25T02:23:37;99511.44;;;7.29;78.32
9523;BME280;63165;43.016;25.784;2023-03-25T02:26:30;99526.84;;;7.47;78.03
9523;BME280;63165;43.016;25.784;2023-03-25T02:29:06;99531.28;;;7.39;78.05
9523;BME280;63165;43.016;25.784;2023-03-25T02:31:47;99528.75;;;7.33;78.14
9523;BME280;63165;43.016;25.784;2023-03-25T02:40:37;99528.91;;;7.22;78.39
9523;BME280;63165;43.016;25.784;2023-03-25T02:43:11;99526.34;;;7.16;78.79
9523;BME280;63165;43.016;25.784;2023-03-25T02:45:43;99522.91;;;7.14;79.03
9523;BME280;63165;43.016;25.784;2023-03-25T02:48:16;99500.50;;;7.00;78.97
9523;BME280;63165;43.016;25.784;2023-03-25T02:50:47;99523.81;;;7.10;78.99
9523;BME280;63165;43.016;25.784;2023-03-25T02:53:21;99480.72;;;6.84;78.72
9523;BME280;63165;43.016;25.784;2023-03-25T02:55:55;99524.72;;;7.07;78.91
9523;BME280;63165;43.016;25.784;2023-03-25T02:58:24;99502.25;;;6.98;79.20
9523;BME280;63165;43.016;25.784;2023-03-25T03:00:54;99509.97;;;7.08;79.47
9523;BME280;63165;43.016;25.784;2023-03-25T03:03:24;99496.16;;;7.01;79.17
9523;BME280;63165;43.016;25.784;2023-03-25T03:05:54;99503.91;;;7.06;79.37
9523;BME280;63165;43.016;25.784;2023-03-25T03:11:14;99501.31;;;7.06;79.27
9523;BME280;63165;43.016;25.784;2023-03-25T03:14:26;99506.47;;;7.09;79.27
9523;BME280;63165;43.016;25.784;2023-03-25T03:17:02;99486.94;;;6.72;78.93
9523;BME280;63165;43.016;25.784;2023-03-25T03:19:38;99498.00;;;6.93;78.85
9523;BME280;63165;43.016;25.784;2023-03-25T03:22:22;99502.34;;;6.92;79.00
9523;BME280;63165;43.016;25.784;2023-03-25T03:25:01;99495.56;;;6.74;78.93
9523;BME280;63165;43.016;25.784;2023-03-25T03:27:34;99455.09;;;6.50;79.83
9523;BME280;63165;43.016;25.784;2023-03-25T03:30:07;99479.28;;;6.58;79.54
9523;BME280;63165;43.016;25.784;2023-03-25T03:32:51;99493.13;;;6.60;80.41
9523;BME280;63165;43.016;25.784;2023-03-25T03:35:25;99470.75;;;6.43;80.88
9523;BME280;63165;43.016;25.784;2023-03-25T03:37:56;99451.94;;;6.16;81.33
9523;BME280;63165;43.016;25.784;2023-03-25T03:40:27;99473.34;;;6.46;80.97
9523;BME280;63165;43.016;25.784;2023-03-25T03:42:59;99487.06;;;6.58;80.75
9523;BME280;63165;43.016;25.784;2023-03-25T03:45:30;99494.88;;;6.57;80.82
9523;BME280;63165;43.016;25.784;2023-03-25T03:48:04;99500.06;;;6.58;81.21
9523;BME280;63165;43.016;25.784;2023-03-25T03:50:37;99482.81;;;6.53;81.04
9523;BME280;63165;43.016;25.784;2023-03-25T03:53:09;99482.72;;;6.60;81.13
9523;BME280;63165;43.016;25.784;2023-03-25T03:55:40;99486.19;;;6.61;80.93
9523;BME280;63165;43.016;25.784;2023-03-25T03:58:16;99477.59;;;6.53;80.89
9523;BME280;63165;43.016;25.784;2023-03-25T04:00:51;99454.34;;;6.36;81.09
9523;BME280;63165;43.016;25.784;2023-03-25T04:03:29;99494.84;;;6.60;80.60
9523;BME280;63165;43.016;25.784;2023-03-25T04:06:02;99465.47;;;6.52;80.23
9523;BME280;63165;43.016;25.784;2023-03-25T04:08:38;99471.59;;;6.45;80.49
9523;BME280;63165;43.016;25.784;2023-03-25T04:11:15;99466.47;;;6.38;80.64
9523;BME280;63165;43.016;25.784;2023-03-25T04:13:46;99489.75;;;6.49;80.72
9523;BME280;63165;43.016;25.784;2023-03-25T04:16:15;99482.81;;;6.53;80.64
9523;BME280;63165;43.016;25.784;2023-03-25T04:18:42;99474.25;;;6.38;80.64
9523;BME280;63165;43.016;25.784;2023-03-25T04:21:12;99475.06;;;6.45;80.71
9523;BME280;63165;43.016;25.784;2023-03-25T04:23:42;99489.72;;;6.51;80.45
9523;BME280;63165;43.016;25.784;2023-03-25T04:26:11;99436.41;;;6.10;80.68
9523;BME280;63165;43.016;25.784;2023-03-25T04:28:38;99476.88;;;6.37;80.70
9523;BME280;63165;43.016;25.784;2023-03-25T04:31:12;99500.13;;;6.51;80.94
9523;BME280;63165;43.016;25.784;2023-03-25T04:33:42;99501.94;;;6.44;80.72
9523;BME280;63165;43.016;25.784;2023-03-25T04:36:13;99511.41;;;6.47;80.77
9523;BME280;63165;43.016;25.784;2023-03-25T04:38:41;99496.75;;;6.39;80.77
9523;BME280;63165;43.016;25.784;2023-03-25T04:41:11;99515.81;;;6.40;81.10
9523;BME280;63165;43.016;25.784;2023-03-25T04:43:40;99503.78;;;6.30;81.56
9523;BME280;63165;43.016;25.784;2023-03-25T04:46:12;99506.31;;;6.36;82.15
9523;BME280;63165;43.016;25.784;2023-03-25T04:48:40;99523.63;;;6.38;83.07
9523;BME280;63165;43.016;25.784;2023-03-25T04:51:10;99534.88;;;6.40;82.86
9523;BME280;63165;43.016;25.784;2023-03-25T04:53:38;99502.84;;;6.38;83.14
9523;BME280;63165;43.016;25.784;2023-03-25T04:56:07;99491.56;;;6.39;83.44
9523;BME280;63165;43.016;25.784;2023-03-25T04:58:38;99499.25;;;6.50;82.92
9523;BME280;63165;43.016;25.784;2023-03-25T05:01:07;99418.38;;;5.87;83.33
9523;BME280;63165;43.016;25.784;2023-03-25T05:03:37;99500.88;;;6.62;83.15
9523;BME280;63165;43.016;25.784;2023-03-25T05:06:06;99507.75;;;6.69;83.15
9523;BME280;63165;43.016;25.784;2023-03-25T05:08:33;99487.03;;;6.63;83.55
9523;BME280;63165;43.016;25.784;2023-03-25T05:11:01;99497.34;;;6.69;83.71
9523;BME280;63165;43.016;25.784;2023-03-25T05:13:29;99505.94;;;6.77;83.69
9523;BME280;63165;43.016;25.784;2023-03-25T05:15:59;99509.31;;;6.89;83.77
9523;BME280;63165;43.016;25.784;2023-03-25T05:18:26;99508.38;;;6.96;84.30
9523;BME280;63165;43.016;25.784;2023-03-25T05:20:55;99511.81;;;6.99;84.46
9523;BME280;63165;43.016;25.784;2023-03-25T05:23:22;99510.81;;;7.07;84.96
9523;BME280;63165;43.016;25.784;2023-03-25T05:25:50;99511.50;;;7.26;84.99
9523;BME280;63165;43.016;25.784;2023-03-25T05:28:18;99510.59;;;7.30;85.47
9523;BME280;63165;43.016;25.784;2023-03-25T05:30:46;99512.09;;;7.46;85.54
9523;BME280;63165;43.016;25.784;2023-03-25T05:33:15;99500.78;;;7.50;86.06
9523;BME280;63165;43.016;25.784;2023-03-25T05:35:47;99517.00;;;7.71;86.48
9523;BME280;63165;43.016;25.784;2023-03-25T05:38:16;99466.03;;;7.54;87.62
9523;BME280;63165;43.016;25.784;2023-03-25T05:40:44;99508.00;;;7.93;87.84
9523;BME280;63165;43.016;25.784;2023-03-25T05:43:13;99498.19;;;8.09;88.28
9523;BME280;63165;43.016;25.784;2023-03-25T05:45:41;99517.88;;;8.30;87.87
9523;BME280;63165;43.016;25.784;2023-03-25T05:48:09;99494.34;;;8.33;87.28
9523;BME280;63165;43.016;25.784;2023-03-25T05:50:36;99489.03;;;8.40;86.57
9523;BME280;63165;43.016;25.784;2023-03-25T05:53:08;99507.75;;;8.65;87.03
9523;BME280;63165;43.016;25.784;2023-03-25T05:55:38;99509.16;;;8.83;88.03
9523;BME280;63165;43.016;25.784;2023-03-25T05:58:06;99492.59;;;8.87;88.10
9523;BME280;63165;43.016;25.784;2023-03-25T06:00:33;99516.22;;;9.24;89.12
9523;BME280;63165;43.016;25.784;2023-03-25T06:03:00;99515.06;;;9.39;89.06
9523;BME280;63165;43.016;25.784;2023-03-25T06:05:27;99511.06;;;9.63;88.64
9523;BME280;63165;43.016;25.784;2023-03-25T06:07:55;99510.63;;;9.83;89.14
9523;BME280;63165;43.016;25.784;2023-03-25T06:10:22;99495.47;;;9.99;88.63
9523;BME280;63165;43.016;25.784;2023-03-25T06:12:51;99499.09;;;10.31;87.23
9523;BME280;63165;43.016;25.784;2023-03-25T06:15:18;99498.56;;;10.53;85.55
9523;BME280;63165;43.016;25.784;2023-03-25T06:17:54;99486.19;;;10.59;85.28
9523;BME280;63165;43.016;25.784;2023-03-25T06:20:25;99500.22;;;10.90;84.16
9523;BME280;63165;43.016;25.784;2023-03-25T06:22:52;99501.44;;;11.09;83.22
9523;BME280;63165;43.016;25.784;2023-03-25T06:25:19;99497.22;;;11.35;82.21
9523;BME280;63165;43.016;25.784;2023-03-25T06:27:48;99414.31;;;11.04;80.32
9523;BME280;63165;43.016;25.784;2023-03-25T06:30:19;99469.53;;;11.56;78.65
9523;BME280;63165;43.016;25.784;2023-03-25T06:32:47;99498.44;;;11.82;77.50
9523;BME280;63165;43.016;25.784;2023-03-25T06:35:18;99494.06;;;12.11;75.98
9523;BME280;63165;43.016;25.784;2023-03-25T06:37:46;99464.19;;;12.17;74.88
9523;BME280;63165;43.016;25.784;2023-03-25T06:40:14;99508.31;;;12.57;75.01
9523;BME280;63165;43.016;25.784;2023-03-25T06:42:42;99481.69;;;12.43;74.29
9523;BME280;63165;43.016;25.784;2023-03-25T06:45:10;99509.56;;;12.97;72.74
9523;BME280;63165;43.016;25.784;2023-03-25T06:47:39;99509.66;;;13.19;70.60
9523;BME280;63165;43.016;25.784;2023-03-25T06:50:07;99498.56;;;13.36;69.61
9523;BME280;63165;43.016;25.784;2023-03-25T06:52:35;99474.47;;;13.49;68.91
9523;BME280;63165;43.016;25.784;2023-03-25T06:55:03;99503.03;;;13.80;69.24
9523;BME280;63165;43.016;25.784;2023-03-25T06:57:30;99493.06;;;13.90;68.50
9523;BME280;63165;43.016;25.784;2023-03-25T07:00:01;99510.06;;;14.25;68.20
9523;BME280;63165;43.016;25.784;2023-03-25T07:02:30;99487.59;;;14.39;67.88
9523;BME280;63165;43.016;25.784;2023-03-25T07:04:59;99495.59;;;14.58;66.92
9523;BME280;63165;43.016;25.784;2023-03-25T07:07:26;99515.22;;;14.91;65.30
9523;BME280;63165;43.016;25.784;2023-03-25T07:09:53;99498.19;;;15.00;63.69
9523;BME280;63165;43.016;25.784;2023-03-25T07:12:20;99522.66;;;15.23;62.45
9523;BME280;63165;43.016;25.784;2023-03-25T07:14:50;99509.78;;;15.36;62.43
9523;BME280;63165;43.016;25.784;2023-03-25T07:17:18;99494.97;;;15.52;61.57
9523;BME280;63165;43.016;25.784;2023-03-25T07:19:45;99507.19;;;15.74;61.32
9523;BME280;63165;43.016;25.784;2023-03-25T07:22:14;99504.25;;;15.99;60.92
9523;BME280;63165;43.016;25.784;2023-03-25T07:24:42;99424.22;;;15.62;60.71
9523;BME280;63165;43.016;25.784;2023-03-25T07:27:10;99485.22;;;16.28;61.21
9523;BME280;63165;43.016;25.784;2023-03-25T07:29:38;99501.94;;;16.64;60.10
9523;BME280;63165;43.016;25.784;2023-03-25T07:32:06;99492.38;;;16.79;59.56
9523;BME280;63165;43.016;25.784;2023-03-25T07:34:33;99492.31;;;16.98;57.96
9523;BME280;63165;43.016;25.784;2023-03-25T07:37:00;99483.28;;;17.19;56.87
9523;BME280;63165;43.016;25.784;2023-03-25T07:39:30;99496.09;;;17.43;56.31
9523;BME280;63165;43.016;25.784;2023-03-25T07:41:57;99489.91;;;17.60;56.30
9523;BME280;63165;43.016;25.784;2023-03-25T07:44:24;99501.88;;;17.83;55.71
9523;BME280;63165;43.016;25.784;2023-03-25T07:46:51;99479.19;;;17.95;55.76
9523;BME280;63165;43.016;25.784;2023-03-25T07:49:18;99489.81;;;18.25;55.23
9523;BME280;63165;43.016;25.784;2023-03-25T07:51:46;99502.97;;;18.42;54.92
9523;BME280;63165;43.016;25.784;2023-03-25T07:54:13;99482.31;;;18.63;53.17
9523;BME280;63165;43.016;25.784;2023-03-25T07:56:42;99482.19;;;18.81;51.38
9523;BME280;63165;43.016;25.784;2023-03-25T07:59:09;99486.94;;;19.05;51.34
9523;BME280;63165;43.016;25.784;2023-03-25T08:01:36;99476.81;;;19.26;51.33
9523;BME280;63165;43.016;25.784;2023-03-25T08:04:03;99485.53;;;19.42;51.78
9523;BME280;63165;43.016;25.784;2023-03-25T08:06:31;99475.56;;;19.60;51.11
9523;BME280;63165;43.016;25.784;2023-03-25T08:08:58;99472.72;;;19.77;51.60
9523;BME280;63165;43.016;25.784;2023-03-25T08:11:25;99485.25;;;20.03;50.46
9523;BME280;63165;43.016;25.784;2023-03-25T08:13:54;99463.41;;;20.12;48.67
9523;BME280;63165;43.016;25.784;2023-03-25T08:16:21;99410.84;;;19.90;48.22
9523;BME280;63165;43.016;25.784;2023-03-25T08:18:48;99477.25;;;20.57;46.72
9523;BME280;63165;43.016;25.784;2023-03-25T08:21:18;99486.47;;;20.79;46.93
9523;BME280;63165;43.016;25.784;2023-03-25T08:23:50;99491.38;;;20.98;46.59
9523;BME280;63165;43.016;25.784;2023-03-25T08:26:23;99463.06;;;21.09;45.37
9523;BME280;63165;43.016;25.784;2023-03-25T08:28:51;99456.78;;;21.36;44.66
9523;BME280;63165;43.016;25.784;2023-03-25T08:31:20;99466.44;;;21.63;44.42
9523;BME280;63165;43.016;25.784;2023-03-25T08:33:48;99475.78;;;21.81;42.78
9523;BME280;63165;43.016;25.784;2023-03-25T08:36:15;99469.78;;;21.90;41.46
9523;BME280;63165;43.016;25.784;2023-03-25T08:38:44;99466.50;;;22.11;41.34
9523;BME280;63165;43.016;25.784;2023-03-25T08:41:12;99465.16;;;22.29;41.18
9523;BME280;63165;43.016;25.784;2023-03-25T08:43:39;99463.53;;;22.51;40.09
9523;BME280;63165;43.016;25.784;2023-03-25T08:46:07;99451.31;;;22.60;39.22
9523;BME280;63165;43.016;25.784;2023-03-25T08:48:36;99468.56;;;22.67;39.22
9523;BME280;63165;43.016;25.784;2023-03-25T08:51:03;99463.25;;;22.78;37.90
9523;BME280;63165;43.016;25.784;2023-03-25T08:53:31;99456.44;;;22.85;37.90
9523;BME280;63165;43.016;25.784;2023-03-25T08:55:59;99445.78;;;22.85;37.61
9523;BME280;63165;43.016;25.784;2023-03-25T08:58:26;99448.72;;;22.94;37.14
9523;BME280;63165;43.016;25.784;2023-03-25T09:00:55;99456.97;;;23.02;36.65
9523;BME280;63165;43.016;25.784;2023-03-25T09:03:23;99442.81;;;23.13;35.99
9523;BME280;63165;43.016;25.784;2023-03-25T09:05:53;99440.66;;;23.29;35.31
9523;BME280;63165;43.016;25.784;2023-03-25T09:08:21;99429.25;;;23.27;35.20
9523;BME280;63165;43.016;25.784;2023-03-25T09:10:48;99438.69;;;23.42;36.02
9523;BME280;63165;43.016;25.784;2023-03-25T09:13:16;99432.50;;;23.53;36.24
9523;BME280;63165;43.016;25.784;2023-03-25T09:15:44;99430.16;;;23.60;34.88
9523;BME280;63165;43.016;25.784;2023-03-25T09:18:11;99397.06;;;23.51;33.96
9523;BME280;63165;43.016;25.784;2023-03-25T09:20:39;99421.28;;;23.71;34.80
9523;BME280;63165;43.016;25.784;2023-03-25T09:23:08;99416.56;;;23.74;34.35
9523;BME280;63165;43.016;25.784;2023-03-25T09:25:36;99391.28;;;23.78;34.77
9523;BME280;63165;43.016;25.784;2023-03-25T09:28:04;99414.31;;;24.02;35.44
9523;BME280;63165;43.016;25.784;2023-03-25T09:30:31;99413.03;;;24.17;34.88
9523;BME280;63165;43.016;25.784;2023-03-25T09:32:59;99398.06;;;24.26;35.23
9523;BME280;63165;43.016;25.784;2023-03-25T09:35:26;99406.16;;;24.36;34.77
9523;BME280;63165;43.016;25.784;2023-03-25T09:37:54;99408.16;;;24.44;34.30
9523;BME280;63165;43.016;25.784;2023-03-25T09:40:23;99323.66;;;24.10;33.65
9523;BME280;63165;43.016;25.784;2023-03-25T09:43:02;99396.72;;;24.53;32.14
9523;BME280;63165;43.016;25.784;2023-03-25T09:45:35;99381.41;;;24.44;32.31
9523;BME280;63165;43.016;25.784;2023-03-25T09:48:16;99401.28;;;24.62;33.03
9523;BME280;63165;43.016;25.784;2023-03-25T09:50:45;99382.34;;;24.75;33.70
9523;BME280;63165;43.016;25.784;2023-03-25T09:53:22;99381.28;;;24.87;33.67
9523;BME280;63165;43.016;25.784;2023-03-25T09:55:53;99385.19;;;24.83;35.08
9523;BME280;63165;43.016;25.784;2023-03-25T09:58:27;99380.59;;;24.95;35.27
9523;BME280;63165;43.016;25.784;2023-03-25T10:01:00;99364.69;;;24.93;35.35
9523;BME280;63165;43.016;25.784;2023-03-25T10:03:35;99340.88;;;24.90;35.03
9523;BME280;63165;43.016;25.784;2023-03-25T10:06:12;99365.22;;;25.18;34.84
9523;BME280;63165;43.016;25.784;2023-03-25T10:09:02;99379.94;;;25.33;34.98
9523;BME280;63165;43.016;25.784;2023-03-25T10:11:41;99369.47;;;25.30;35.19
9523;BME280;63165;43.016;25.784;2023-03-25T10:14:14;99312.16;;;25.02;35.00
9523;BME280;63165;43.016;25.784;2023-03-25T10:16:51;99336.25;;;25.02;34.58
9523;BME280;63165;43.016;25.784;2023-03-25T10:19:33;99361.63;;;25.38;34.38
9523;BME280;63165;43.016;25.784;2023-03-25T10:22:03;99357.81;;;25.41;34.90
9523;BME280;63165;43.016;25.784;2023-03-25T10:24:33;99341.34;;;25.46;34.34
9523;BME280;63165;43.016;25.784;2023-03-25T10:27:12;99349.22;;;25.47;33.90
9523;BME280;63165;43.016;25.784;2023-03-25T10:29:44;99295.41;;;25.00;33.29
9523;BME280;63165;43.016;25.784;2023-03-25T10:32:16;99323.44;;;25.36;33.25
9523;BME280;63165;43.016;25.784;2023-03-25T10:34:48;99336.53;;;25.40;32.80
9523;BME280;63165;43.016;25.784;2023-03-25T10:37:19;99339.78;;;25.33;32.53
9523;BME280;63165;43.016;25.784;2023-03-25T10:39:54;99330.28;;;25.19;32.67
9523;BME280;63165;43.016;25.784;2023-03-25T10:42:30;99337.16;;;25.12;32.48
9523;BME280;63165;43.016;25.784;2023-03-25T10:44:59;99340.28;;;25.17;32.63
9523;BME280;63165;43.016;25.784;2023-03-25T10:47:30;99322.94;;;25.22;32.31
9523;BME280;63165;43.016;25.784;2023-03-25T10:50:02;99326.31;;;25.14;32.45
9523;BME280;63165;43.016;25.784;2023-03-25T10:52:30;99329.13;;;25.22;32.41
9523;BME280;63165;43.016;25.784;2023-03-25T10:54:57;99309.00;;;25.18;31.87
9523;BME280;63165;43.016;25.784;2023-03-25T10:57:28;99316.22;;;25.27;32.06
9523;BME280;63165;43.016;25.784;2023-03-25T11:00:03;99293.41;;;25.33;32.00
9523;BME280;63165;43.016;25.784;2023-03-25T11:02:37;99319.94;;;25.55;31.68
9523;BME280;63165;43.016;25.784;2023-03-25T11:05:06;99301.88;;;25.57;31.71
9523;BME280;63165;43.016;25.784;2023-03-25T11:07:36;99288.63;;;25.66;31.50
9523;BME280;63165;43.016;25.784;2023-03-25T11:10:10;99312.06;;;25.83;31.56
9523;BME280;63165;43.016;25.784;2023-03-25T11:12:42;99296.00;;;25.93;31.63
9523;BME280;63165;43.016;25.784;2023-03-25T11:15:13;99304.84;;;26.03;31.54
9523;BME280;63165;43.016;25.784;2023-03-25T11:17:42;99293.28;;;26.12;31.54
9523;BME280;63165;43.016;25.784;2023-03-25T11:20:18;99284.69;;;26.19;31.35
9523;BME280;63165;43.016;25.784;2023-03-25T11:22:49;99274.25;;;26.06;30.92
9523;BME280;63165;43.016;25.784;2023-03-25T11:25:19;99283.94;;;26.17;31.67
9523;BME280;63165;43.016;25.784;2023-03-25T11:27:54;99270.56;;;26.07;31.91
9523;BME280;63165;43.016;25.784;2023-03-25T11:30:24;99283.81;;;26.18;30.99
9523;BME280;63165;43.016;25.784;2023-03-25T11:33:02;99271.53;;;26.15;31.86
9523;BME280;63165;43.016;25.784;2023-03-25T11:35:31;99291.16;;;26.16;31.03
9523;BME280;63165;43.016;25.784;2023-03-25T11:38:13;99265.19;;;26.17;30.99
9523;BME280;63165;43.016;25.784;2023-03-25T11:40:48;99278.91;;;26.13;30.90
9523;BME280;63165;43.016;25.784;2023-03-25T11:43:20;99270.00;;;26.13;30.88
9523;BME280;63165;43.016;25.784;2023-03-25T11:45:49;99240.41;;;25.85;30.83
9523;BME280;63165;43.016;25.784;2023-03-25T11:48:19;99271.41;;;25.88;31.06
9523;BME280;63165;43.016;25.784;2023-03-25T11:50:48;99277.06;;;25.85;31.16
9523;BME280;63165;43.016;25.784;2023-03-25T11:53:20;99254.50;;;25.68;31.37
9523;BME280;63165;43.016;25.784;2023-03-25T11:55:53;99249.72;;;25.62;31.66
9523;BME280;63165;43.016;25.784;2023-03-25T11:58:26;99273.41;;;25.66;31.95
9523;BME280;63165;43.016;25.784;2023-03-25T12:01:00;99272.72;;;25.74;32.38
9523;BME280;63165;43.016;25.784;2023-03-25T12:03:30;99271.56;;;25.76;32.59
9523;BME280;63165;43.016;25.784;2023-03-25T12:06:02;99267.59;;;25.81;32.61
9523;BME280;63165;43.016;25.784;2023-03-25T12:08:31;99279.78;;;25.94;32.95
9523;BME280;63165;43.016;25.784;2023-03-25T12:11:10;99251.84;;;25.97;32.87
9523;BME280;63165;43.016;25.784;2023-03-25T12:13:59;99257.31;;;26.05;32.82
9523;BME280;63165;43.016;25.784;2023-03-25T12:16:39;99262.22;;;26.20;32.70
9523;BME280;63165;43.016;25.784;2023-03-25T12:19:18;99266.84;;;26.27;32.23
9523;BME280;63165;43.016;25.784;2023-03-25T12:22:01;99265.13;;;26.36;32.10
9523;BME280;63165;43.016;25.784;2023-03-25T12:25:12;99256.44;;;26.52;31.31
9523;BME280;63165;43.016;25.784;2023-03-25T12:27:54;99240.25;;;26.44;31.47
9523;BME280;63165;43.016;25.784;2023-03-25T12:30:47;99256.31;;;26.53;30.88
9523;BME280;63165;43.016;25.784;2023-03-25T12:33:30;99267.34;;;26.50;31.11
9523;BME280;63165;43.016;25.784;2023-03-25T12:36:18;99250.44;;;26.40;30.71
9523;BME280;63165;43.016;25.784;2023-03-25T12:38:55;99250.03;;;26.35;29.74
9523;BME280;63165;43.016;25.784;2023-03-25T12:41:29;99243.97;;;26.33;29.94
9523;BME280;63165;43.016;25.784;2023-03-25T12:44:04;99259.50;;;26.29;29.86
9523;BME280;63165;43.016;25.784;2023-03-25T12:52:34;99251.69;;;25.69;30.36
9523;BME280;63165;43.016;25.784;2023-03-25T12:55:22;99241.56;;;25.53;30.38
9523;BME280;63165;43.016;25.784;2023-03-25T12:58:02;99241.81;;;25.60;30.63
9523;BME280;63165;43.016;25.784;2023-03-25T13:00:43;99239.84;;;25.62;30.50
9523;BME280;63165;43.016;25.784;2023-03-25T13:03:25;99179.38;;;25.30;30.81
9523;BME280;63165;43.016;25.784;2023-03-25T13:05:57;99245.47;;;25.79;30.71
9523;BME280;63165;43.016;25.784;2023-03-25T13:08:29;99171.66;;;25.37;30.66
9523;BME280;63165;43.016;25.784;2023-03-25T13:11:02;99186.56;;;25.59;30.44
9523;BME280;63165;43.016;25.784;2023-03-25T13:13:34;99236.88;;;26.04;30.40
9523;BME280;63165;43.016;25.784;2023-03-25T13:16:06;99227.13;;;26.03;30.09
9523;BME280;63165;43.016;25.784;2023-03-25T13:18:39;99236.28;;;26.10;29.92
9523;BME280;63165;43.016;25.784;2023-03-25T13:21:12;99212.31;;;25.99;29.67
9523;BME280;63165;43.016;25.784;2023-03-25T13:23:44;99216.72;;;26.00;29.08
9523;BME280;63165;43.016;25.784;2023-03-25T13:26:16;99226.97;;;26.05;28.32
9523;BME280;63165;43.016;25.784;2023-03-25T13:28:47;99225.44;;;26.02;28.93
9523;BME280;63165;43.016;25.784;2023-03-25T13:31:18;99207.97;;;25.79;27.92
9523;BME280;63165;43.016;25.784;2023-03-25T13:33:52;99206.56;;;25.74;27.95
9523;BME280;63165;43.016;25.784;2023-03-25T13:36:26;99233.91;;;25.88;28.29
9523;BME280;63165;43.016;25.784;2023-03-25T13:38:56;99223.19;;;25.88;28.54
9523;BME280;63165;43.016;25.784;2023-03-25T13:41:30;99237.44;;;25.98;28.87
9523;BME280;63165;43.016;25.784;2023-03-25T13:44:03;99222.75;;;26.02;28.79
9523;BME280;63165;43.016;25.784;2023-03-25T13:46:36;99233.91;;;25.98;28.04